sensor_id;sensor_type;location;lat;lon;timestamp;pressure;altitude;pressure_sealevel;temperature;humidity
73551;BME280;61816;53.582;10.096;2023-05-19T00:01:26;54227.09;;;-144.73;97.06
73551;BME280;61816;53.582;10.096;2023-05-19T00:03:54;54239.41;;;-144.73;98.51
73551;BME280;61816;53.582;10.096;2023-05-19T00:06:23;54292.75;;;-144.73;97.80
73551;BME280;61816;53.582;10.096;2023-05-19T00:08:54;54259.91;;;-144.73;97.47
73551;BME280;61816;53.582;10.096;2023-05-19T00:11:21;54235.28;;;-144.73;97.22
73551;BME280;61816;53.582;10.096;2023-05-19T00:13:47;54276.34;;;-144.73;96.75
73551;BME280;61816;53.582;10.096;2023-05-19T00:16:14;54251.72;;;-144.73;96.42
73551;BME280;61816;53.582;10.096;2023-05-19T00:18:39;54329.72;;;-144.73;96.48
73551;BME280;61816;53.582;10.096;2023-05-19T00:21:06;54276.34;;;-144.73;96.30
73551;BME280;61816;53.582;10.096;2023-05-19T00:23:31;54268.13;;;-144.73;96.85
73551;BME280;61816;53.582;10.096;2023-05-19T00:25:56;54294.81;;;-144.73;96.95
73551;BME280;61816;53.582;10.096;2023-05-19T00:28:22;54276.34;;;-144.73;95.71
73551;BME280;61816;53.582;10.096;2023-05-19T00:30:47;54276.34;;;-144.73;95.99
73551;BME280;61816;53.582;10.096;2023-05-19T00:33:12;54313.28;;;-144.73;96.70
73551;BME280;61816;53.582;10.096;2023-05-19T00:35:38;54296.88;;;-144.73;95.80
73551;BME280;61816;53.582;10.096;2023-05-19T00:38:04;54276.34;;;-144.73;95.41
73551;BME280;61816;53.582;10.096;2023-05-19T00:40:31;54315.34;;;-144.73;96.04
73551;BME280;61816;53.582;10.096;2023-05-19T00:42:58;54292.75;;;-144.73;94.73
73551;BME280;61816;53.582;10.096;2023-05-19T00:45:24;54300.97;;;-144.73;94.75
73551;BME280;61816;53.582;10.096;2023-05-19T00:47:49;54309.19;;;-144.73;95.72
73551;BME280;61816;53.582;10.096;2023-05-19T00:50:14;54264.03;;;-144.73;96.43
73551;BME280;61816;53.582;10.096;2023-05-19T00:52:40;54288.66;;;-144.73;95.90
73551;BME280;61816;53.582;10.096;2023-05-19T00:55:06;54296.88;;;-144.73;97.29
73551;BME280;61816;53.582;10.096;2023-05-19T00:57:32;54276.34;;;-144.73;97.41
73551;BME280;61816;53.582;10.096;2023-05-19T00:59:57;54288.66;;;-144.73;98.28
73551;BME280;61816;53.582;10.096;2023-05-19T01:02:23;54276.34;;;-144.73;98.02
73551;BME280;61816;53.582;10.096;2023-05-19T01:04:49;54259.91;;;-144.73;98.01
73551;BME280;61816;53.582;10.096;2023-05-19T01:07:15;54255.81;;;-144.73;97.83
73551;BME280;61816;53.582;10.096;2023-05-19T01:09:40;54284.56;;;-144.73;98.10
73551;BME280;61816;53.582;10.096;2023-05-19T01:12:06;54317.38;;;-144.73;97.13
73551;BME280;61816;53.582;10.096;2023-05-19T01:14:32;54317.38;;;-144.73;97.26
73551;BME280;61816;53.582;10.096;2023-05-19T01:17:03;54280.44;;;-144.73;97.80
73551;BME280;61816;53.582;10.096;2023-05-19T01:20:01;54276.34;;;-144.73;98.20
73551;BME280;61816;53.582;10.096;2023-05-19T01:30:39;54284.56;;;-144.73;99.76
73551;BME280;61816;53.582;10.096;2023-05-19T01:33:07;54280.44;;;-144.73;100.00
73551;BME280;61816;53.582;10.096;2023-05-19T01:35:35;54296.88;;;-144.73;100.00
73551;BME280;61816;53.582;10.096;2023-05-19T01:38:00;54255.81;;;-144.73;100.00
73551;BME280;61816;53.582;10.096;2023-05-19T01:40:27;54276.34;;;-144.73;100.00
73551;BME280;61816;53.582;10.096;2023-05-19T01:42:55;54284.56;;;-144.73;100.00
73551;BME280;61816;53.582;10.096;2023-05-19T01:45:21;54288.66;;;-144.73;100.00
73551;BME280;61816;53.582;10.096;2023-05-19T01:47:50;54317.38;;;-144.73;100.00
73551;BME280;61816;53.582;10.096;2023-05-19T01:50:15;54276.34;;;-144.73;100.00
73551;BME280;61816;53.582;10.096;2023-05-19T01:52:41;54266.06;;;-144.73;100.00
73551;BME280;61816;53.582;10.096;2023-05-19T01:55:07;54288.66;;;-144.73;100.00
73551;BME280;61816;53.582;10.096;2023-05-19T02:00:28;54321.50;;;-144.73;100.00
73551;BME280;61816;53.582;10.096;2023-05-19T02:08:29;54237.34;;;-144.73;100.00
73551;BME280;61816;53.582;10.096;2023-05-19T02:11:01;54313.28;;;-144.73;100.00
73551;BME280;61816;53.582;10.096;2023-05-19T02:13:30;54288.66;;;-144.73;100.00
73551;BME280;61816;53.582;10.096;2023-05-19T02:16:04;54321.50;;;-144.73;100.00
73551;BME280;61816;53.582;10.096;2023-05-19T02:18:31;54247.59;;;-144.73;100.00
73551;BME280;61816;53.582;10.096;2023-05-19T02:20:57;54317.38;;;-144.73;100.00
73551;BME280;61816;53.582;10.096;2023-05-19T02:23:23;54300.97;;;-144.73;100.00
73551;BME280;61816;53.582;10.096;2023-05-19T02:25:48;54288.66;;;-144.73;100.00
73551;BME280;61816;53.582;10.096;2023-05-19T02:28:13;54327.66;;;-144.73;100.00
73551;BME280;61816;53.582;10.096;2023-05-19T02:30:39;54259.91;;;-144.73;100.00
73551;BME280;61816;53.582;10.096;2023-05-19T02:33:04;54276.34;;;-144.73;100.00
73551;BME280;61816;53.582;10.096;2023-05-19T02:35:31;54300.97;;;-144.73;100.00
73551;BME280;61816;53.582;10.096;2023-05-19T02:37:56;54290.72;;;-144.73;100.00
73551;BME280;61816;53.582;10.096;2023-05-19T02:40:21;54321.50;;;-144.73;100.00
73551;BME280;61816;53.582;10.096;2023-05-19T02:42:47;54276.34;;;-144.73;100.00
73551;BME280;61816;53.582;10.096;2023-05-19T02:45:13;54292.75;;;-144.73;100.00
73551;BME280;61816;53.582;10.096;2023-05-19T02:47:38;54251.72;;;-144.73;100.00
73551;BME280;61816;53.582;10.096;2023-05-19T02:50:06;54288.66;;;-144.73;100.00
73551;BME280;61816;53.582;10.096;2023-05-19T02:52:31;54296.88;;;-144.73;100.00
73551;BME280;61816;53.582;10.096;2023-05-19T02:54:57;54313.28;;;-144.73;100.00
73551;BME280;61816;53.582;10.096;2023-05-19T02:57:22;54276.34;;;-144.73;100.00
73551;BME280;61816;53.582;10.096;2023-05-19T02:59:48;54276.34;;;-144.73;100.00
73551;BME280;61816;53.582;10.096;2023-05-19T03:02:13;54288.66;;;-144.73;100.00
73551;BME280;61816;53.582;10.096;2023-05-19T03:04:39;54251.72;;;-144.73;100.00
73551;BME280;61816;53.582;10.096;2023-05-19T03:07:06;54288.66;;;-144.73;100.00
73551;BME280;61816;53.582;10.096;2023-05-19T03:09:36;54325.59;;;-144.73;100.00
73551;BME280;61816;53.582;10.096;2023-05-19T03:12:01;54231.19;;;-144.73;100.00
73551;BME280;61816;53.582;10.096;2023-05-19T03:14:28;54268.13;;;-144.73;100.00
73551;BME280;61816;53.582;10.096;2023-05-19T03:16:54;54255.81;;;-144.73;100.00
73551;BME280;61816;53.582;10.096;2023-05-19T03:19:20;54284.56;;;-144.73;100.00
73551;BME280;61816;53.582;10.096;2023-05-19T03:21:45;54313.28;;;-144.73;100.00
73551;BME280;61816;53.582;10.096;2023-05-19T03:24:12;54264.03;;;-144.73;100.00
73551;BME280;61816;53.582;10.096;2023-05-19T03:26:37;54251.72;;;-144.73;100.00
73551;BME280;61816;53.582;10.096;2023-05-19T03:29:03;54300.97;;;-144.73;100.00
73551;BME280;61816;53.582;10.096;2023-05-19T03:31:28;54305.06;;;-144.73;100.00
73551;BME280;61816;53.582;10.096;2023-05-19T03:33:55;54290.72;;;-144.73;100.00
73551;BME280;61816;53.582;10.096;2023-05-19T03:36:22;54278.41;;;-144.73;100.00
73551;BME280;61816;53.582;10.096;2023-05-19T03:38:48;54276.34;;;-144.73;100.00
73551;BME280;61816;53.582;10.096;2023-05-19T03:41:13;54276.34;;;-144.73;100.00
73551;BME280;61816;53.582;10.096;2023-05-19T03:43:38;54300.97;;;-144.73;100.00
73551;BME280;61816;53.582;10.096;2023-05-19T03:46:04;54309.19;;;-144.73;100.00
73551;BME280;61816;53.582;10.096;2023-05-19T03:48:29;54243.50;;;-144.73;100.00
73551;BME280;61816;53.582;10.096;2023-05-19T03:50:55;54276.34;;;-144.73;100.00
73551;BME280;61816;53.582;10.096;2023-05-19T03:53:20;54296.88;;;-144.73;100.00
73551;BME280;61816;53.582;10.096;2023-05-19T03:55:45;54325.59;;;-144.73;100.00
73551;BME280;61816;53.582;10.096;2023-05-19T03:58:12;54288.66;;;-144.73;100.00
73551;BME280;61816;53.582;10.096;2023-05-19T04:00:39;54276.34;;;-144.73;100.00
73551;BME280;61816;53.582;10.096;2023-05-19T04:03:04;54233.25;;;-144.73;100.00
73551;BME280;61816;53.582;10.096;2023-05-19T04:05:30;54305.06;;;-144.73;100.00
73551;BME280;61816;53.582;10.096;2023-05-19T04:07:55;54292.75;;;-144.73;100.00
73551;BME280;61816;53.582;10.096;2023-05-19T04:10:21;54284.56;;;-144.73;100.00
73551;BME280;61816;53.582;10.096;2023-05-19T04:12:46;54288.66;;;-144.73;100.00
73551;BME280;61816;53.582;10.096;2023-05-19T04:15:12;54264.03;;;-144.73;100.00
73551;BME280;61816;53.582;10.096;2023-05-19T04:17:38;54284.56;;;-144.73;100.00
73551;BME280;61816;53.582;10.096;2023-05-19T04:20:04;54227.09;;;-144.73;100.00
73551;BME280;61816;53.582;10.096;2023-05-19T04:22:32;54280.44;;;-144.73;100.00
73551;BME280;61816;53.582;10.096;2023-05-19T04:24:57;54284.56;;;-144.73;100.00
73551;BME280;61816;53.582;10.096;2023-05-19T04:27:24;54317.38;;;-144.73;100.00
73551;BME280;61816;53.582;10.096;2023-05-19T04:29:52;54317.38;;;-144.73;100.00
73551;BME280;61816;53.582;10.096;2023-05-19T04:32:19;54292.75;;;-144.73;100.00
73551;BME280;61816;53.582;10.096;2023-05-19T04:34:44;54300.97;;;-144.73;100.00
73551;BME280;61816;53.582;10.096;2023-05-19T04:37:13;54313.28;;;-144.73;100.00
73551;BME280;61816;53.582;10.096;2023-05-19T04:39:43;54288.66;;;-144.73;100.00
73551;BME280;61816;53.582;10.096;2023-05-19T04:42:09;54311.22;;;-144.73;100.00
73551;BME280;61816;53.582;10.096;2023-05-19T04:44:36;54325.59;;;-144.73;100.00
73551;BME280;61816;53.582;10.096;2023-05-19T04:47:02;54276.34;;;-144.73;100.00
73551;BME280;61816;53.582;10.096;2023-05-19T04:49:30;54276.34;;;-144.73;100.00
73551;BME280;61816;53.582;10.096;2023-05-19T04:51:56;54300.97;;;-144.73;100.00
73551;BME280;61816;53.582;10.096;2023-05-19T04:54:21;54276.34;;;-144.73;100.00
73551;BME280;61816;53.582;10.096;2023-05-19T04:56:47;54280.44;;;-144.73;100.00
73551;BME280;61816;53.582;10.096;2023-05-19T04:59:12;54321.50;;;-144.73;100.00
73551;BME280;61816;53.582;10.096;2023-05-19T05:01:37;54280.44;;;-144.73;100.00
73551;BME280;61816;53.582;10.096;2023-05-19T05:04:04;54288.66;;;-144.73;100.00
73551;BME280;61816;53.582;10.096;2023-05-19T05:06:30;54276.34;;;-144.73;100.00
73551;BME280;61816;53.582;10.096;2023-05-19T05:08:55;54288.66;;;-144.73;100.00
73551;BME280;61816;53.582;10.096;2023-05-19T05:11:21;54296.88;;;-144.73;100.00
73551;BME280;61816;53.582;10.096;2023-05-19T05:13:47;54292.75;;;-144.73;100.00
73551;BME280;61816;53.582;10.096;2023-05-19T05:16:13;54284.56;;;-144.73;99.33
73551;BME280;61816;53.582;10.096;2023-05-19T05:18:38;54313.28;;;-144.73;99.07
73551;BME280;61816;53.582;10.096;2023-05-19T05:21:05;54313.28;;;-144.73;98.53
73551;BME280;61816;53.582;10.096;2023-05-19T05:23:31;54247.59;;;-144.73;98.03
73551;BME280;61816;53.582;10.096;2023-05-19T05:25:57;54284.56;;;-144.73;97.83
73551;BME280;61816;53.582;10.096;2023-05-19T05:28:22;54300.97;;;-144.73;98.33
73551;BME280;61816;53.582;10.096;2023-05-19T05:30:48;54276.34;;;-144.73;97.52
73551;BME280;61816;53.582;10.096;2023-05-19T05:33:15;54282.50;;;-144.73;98.00
73551;BME280;61816;53.582;10.096;2023-05-19T05:35:41;54305.06;;;-144.73;97.63
73551;BME280;61816;53.582;10.096;2023-05-19T05:38:06;54305.06;;;-144.73;98.41
73551;BME280;61816;53.582;10.096;2023-05-19T05:40:32;54300.97;;;-144.73;97.79
73551;BME280;61816;53.582;10.096;2023-05-19T05:42:57;54294.81;;;-144.73;97.00
73551;BME280;61816;53.582;10.096;2023-05-19T05:45:23;54296.88;;;-144.73;96.65
73551;BME280;61816;53.582;10.096;2023-05-19T05:47:50;54276.34;;;-144.73;95.63
73551;BME280;61816;53.582;10.096;2023-05-19T05:50:16;54313.28;;;-144.73;96.02
73551;BME280;61816;53.582;10.096;2023-05-19T05:52:45;54292.75;;;-144.73;94.38
73551;BME280;61816;53.582;10.096;2023-05-19T05:55:11;54342.03;;;-144.73;95.32
73551;BME280;61816;53.582;10.096;2023-05-19T05:57:37;54251.72;;;-144.73;94.94
73551;BME280;61816;53.582;10.096;2023-05-19T06:00:06;54276.34;;;-144.73;93.40
73551;BME280;61816;53.582;10.096;2023-05-19T06:02:44;54317.38;;;-144.73;92.64
73551;BME280;61816;53.582;10.096;2023-05-19T06:05:12;54284.56;;;-144.73;92.70
73551;BME280;61816;53.582;10.096;2023-05-19T06:07:39;54282.50;;;-144.73;91.26
73551;BME280;61816;53.582;10.096;2023-05-19T06:10:05;54288.66;;;-144.73;91.15
73551;BME280;61816;53.582;10.096;2023-05-19T06:12:31;54325.59;;;-144.73;91.30
73551;BME280;61816;53.582;10.096;2023-05-19T06:14:56;54261.97;;;-144.73;91.15
73551;BME280;61816;53.582;10.096;2023-05-19T06:17:22;54280.44;;;-144.73;92.29
73551;BME280;61816;53.582;10.096;2023-05-19T06:19:47;54268.13;;;-144.73;90.80
73551;BME280;61816;53.582;10.096;2023-05-19T06:22:12;54305.06;;;-144.73;88.66
73551;BME280;61816;53.582;10.096;2023-05-19T06:24:38;54319.44;;;-144.73;88.34
73551;BME280;61816;53.582;10.096;2023-05-19T06:27:03;54305.06;;;-144.73;87.30
73551;BME280;61816;53.582;10.096;2023-05-19T06:29:28;54305.06;;;-144.73;86.73
73551;BME280;61816;53.582;10.096;2023-05-19T06:31:54;54286.59;;;-144.73;87.10
73551;BME280;61816;53.582;10.096;2023-05-19T06:34:20;54276.34;;;-144.73;86.38
73551;BME280;61816;53.582;10.096;2023-05-19T06:36:45;54276.34;;;-144.73;85.54
73551;BME280;61816;53.582;10.096;2023-05-19T06:39:11;54264.03;;;-144.73;86.51
73551;BME280;61816;53.582;10.096;2023-05-19T06:41:36;54280.44;;;-144.73;84.56
73551;BME280;61816;53.582;10.096;2023-05-19T06:44:03;54288.66;;;-144.73;84.01
73551;BME280;61816;53.582;10.096;2023-05-19T06:46:28;54339.97;;;-144.73;85.05
73551;BME280;61816;53.582;10.096;2023-05-19T06:48:53;54288.66;;;-144.73;85.07
73551;BME280;61816;53.582;10.096;2023-05-19T06:51:19;54292.75;;;-144.73;85.28
73551;BME280;61816;53.582;10.096;2023-05-19T06:53:47;54259.91;;;-144.73;84.63
73551;BME280;61816;53.582;10.096;2023-05-19T06:56:12;54239.41;;;-144.73;83.15
73551;BME280;61816;53.582;10.096;2023-05-19T06:58:39;54309.19;;;-144.73;84.51
73551;BME280;61816;53.582;10.096;2023-05-19T07:01:05;54288.66;;;-144.73;84.34
73551;BME280;61816;53.582;10.096;2023-05-19T07:03:30;54259.91;;;-144.73;84.39
73551;BME280;61816;53.582;10.096;2023-05-19T07:05:55;54296.88;;;-144.73;82.63
73551;BME280;61816;53.582;10.096;2023-05-19T07:08:21;54342.03;;;-144.73;83.18
73551;BME280;61816;53.582;10.096;2023-05-19T07:10:46;54257.88;;;-144.73;83.51
73551;BME280;61816;53.582;10.096;2023-05-19T07:13:11;54259.91;;;-144.73;82.78
73551;BME280;61816;53.582;10.096;2023-05-19T07:15:37;54251.72;;;-144.73;82.30
73551;BME280;61816;53.582;10.096;2023-05-19T07:18:02;54276.34;;;-144.73;81.96
73551;BME280;61816;53.582;10.096;2023-05-19T07:20:27;54276.34;;;-144.73;82.76
73551;BME280;61816;53.582;10.096;2023-05-19T07:22:53;54235.28;;;-144.73;82.38
73551;BME280;61816;53.582;10.096;2023-05-19T07:25:18;54243.50;;;-144.73;80.59
73551;BME280;61816;53.582;10.096;2023-05-19T07:27:44;54309.19;;;-144.73;80.34
73551;BME280;61816;53.582;10.096;2023-05-19T07:30:10;54235.28;;;-144.73;79.36
73551;BME280;61816;53.582;10.096;2023-05-19T07:32:35;54276.34;;;-144.73;77.27
73551;BME280;61816;53.582;10.096;2023-05-19T07:35:01;54284.56;;;-144.73;75.73
73551;BME280;61816;53.582;10.096;2023-05-19T07:37:26;54235.28;;;-144.73;76.23
73551;BME280;61816;53.582;10.096;2023-05-19T07:39:52;54241.44;;;-144.73;74.38
73551;BME280;61816;53.582;10.096;2023-05-19T07:42:17;54208.63;;;-144.73;74.22
73551;BME280;61816;53.582;10.096;2023-05-19T07:44:42;54243.50;;;-144.73;73.49
73551;BME280;61816;53.582;10.096;2023-05-19T07:47:08;54225.03;;;-144.73;72.72
73551;BME280;61816;53.582;10.096;2023-05-19T07:49:33;54222.97;;;-144.73;69.97
73551;BME280;61816;53.582;10.096;2023-05-19T07:51:59;54294.81;;;-144.73;68.88
73551;BME280;61816;53.582;10.096;2023-05-19T07:54:24;54268.13;;;-144.73;69.16
73551;BME280;61816;53.582;10.096;2023-05-19T07:56:49;54227.09;;;-144.73;67.76
73551;BME280;61816;53.582;10.096;2023-05-19T07:59:16;54259.91;;;-144.73;65.72
73551;BME280;61816;53.582;10.096;2023-05-19T08:01:41;54227.09;;;-144.73;63.85
73551;BME280;61816;53.582;10.096;2023-05-19T08:04:07;54239.41;;;-144.73;63.25
73551;BME280;61816;53.582;10.096;2023-05-19T08:06:32;54214.78;;;-144.73;64.66
73551;BME280;61816;53.582;10.096;2023-05-19T08:08:57;54190.13;;;-144.73;62.46
73551;BME280;61816;53.582;10.096;2023-05-19T08:11:23;54261.97;;;-144.73;63.21
73551;BME280;61816;53.582;10.096;2023-05-19T08:13:48;54292.75;;;-144.73;61.69
73551;BME280;61816;53.582;10.096;2023-05-19T08:16:14;54280.44;;;-144.73;62.88
73551;BME280;61816;53.582;10.096;2023-05-19T08:18:40;54212.72;;;-144.73;63.21
73551;BME280;61816;53.582;10.096;2023-05-19T08:21:06;54266.06;;;-144.73;61.34
73551;BME280;61816;53.582;10.096;2023-05-19T08:23:31;54257.88;;;-144.73;61.92
73551;BME280;61816;53.582;10.096;2023-05-19T08:25:57;54284.56;;;-144.73;61.70
73551;BME280;61816;53.582;10.096;2023-05-19T08:28:22;54231.19;;;-144.73;61.26
73551;BME280;61816;53.582;10.096;2023-05-19T08:30:49;54222.97;;;-144.73;59.72
73551;BME280;61816;53.582;10.096;2023-05-19T08:33:14;54243.50;;;-144.73;58.64
73551;BME280;61816;53.582;10.096;2023-05-19T08:35:40;54214.78;;;-144.73;59.14
73551;BME280;61816;53.582;10.096;2023-05-19T08:38:05;54239.41;;;-144.73;57.85
73551;BME280;61816;53.582;10.096;2023-05-19T08:40:32;54218.88;;;-144.73;57.46
73551;BME280;61816;53.582;10.096;2023-05-19T08:42:58;54251.72;;;-144.73;55.29
73551;BME280;61816;53.582;10.096;2023-05-19T08:45:25;54212.72;;;-144.73;55.21
73551;BME280;61816;53.582;10.096;2023-05-19T08:47:51;54239.41;;;-144.73;54.55
73551;BME280;61816;53.582;10.096;2023-05-19T08:50:23;54239.41;;;-144.73;55.49
73551;BME280;61816;53.582;10.096;2023-05-19T08:53:00;54227.09;;;-144.73;55.82
73551;BME280;61816;53.582;10.096;2023-05-19T08:55:42;54214.78;;;-144.73;56.16
73551;BME280;61816;53.582;10.096;2023-05-19T08:58:11;54198.34;;;-144.73;55.41
73551;BME280;61816;53.582;10.096;2023-05-19T09:00:37;54231.19;;;-144.73;54.17
73551;BME280;61816;53.582;10.096;2023-05-19T09:03:03;54206.56;;;-144.73;52.33
73551;BME280;61816;53.582;10.096;2023-05-19T09:05:29;54202.44;;;-144.73;52.51
73551;BME280;61816;53.582;10.096;2023-05-19T09:07:55;54210.66;;;-144.73;53.22
73551;BME280;61816;53.582;10.096;2023-05-19T09:10:21;54218.88;;;-144.73;51.89
73551;BME280;61816;53.582;10.096;2023-05-19T09:12:46;54235.28;;;-144.73;49.47
73551;BME280;61816;53.582;10.096;2023-05-19T09:15:15;54243.50;;;-144.73;50.42
73551;BME280;61816;53.582;10.096;2023-05-19T09:17:44;54212.72;;;-144.73;50.35
73551;BME280;61816;53.582;10.096;2023-05-19T09:20:10;54227.09;;;-144.73;52.57
73551;BME280;61816;53.582;10.096;2023-05-19T09:22:42;54214.78;;;-144.73;50.76
73551;BME280;61816;53.582;10.096;2023-05-19T09:25:23;54194.25;;;-144.73;50.81
73551;BME280;61816;53.582;10.096;2023-05-19T09:27:49;54218.88;;;-144.73;51.79
73551;BME280;61816;53.582;10.096;2023-05-19T09:30:15;54190.13;;;-144.73;50.11
73551;BME280;61816;53.582;10.096;2023-05-19T09:32:41;54192.19;;;-144.73;48.65
73551;BME280;61816;53.582;10.096;2023-05-19T09:35:07;54198.34;;;-144.73;48.58
73551;BME280;61816;53.582;10.096;2023-05-19T09:37:32;54132.69;;;-144.73;49.37
73551;BME280;61816;53.582;10.096;2023-05-19T09:39:58;54200.41;;;-144.73;48.89
73551;BME280;61816;53.582;10.096;2023-05-19T09:42:24;54216.81;;;-144.73;45.85
73551;BME280;61816;53.582;10.096;2023-05-19T09:45:03;54218.88;;;-144.73;45.93
73551;BME280;61816;53.582;10.096;2023-05-19T09:47:34;54222.97;;;-144.73;48.17
73551;BME280;61816;53.582;10.096;2023-05-19T09:50:01;54194.25;;;-144.73;48.02
73551;BME280;61816;53.582;10.096;2023-05-19T09:52:26;54231.19;;;-144.73;48.34
73551;BME280;61816;53.582;10.096;2023-05-19T09:54:52;54173.72;;;-144.73;47.63
73551;BME280;61816;53.582;10.096;2023-05-19T09:57:24;54202.44;;;-144.73;46.61
73551;BME280;61816;53.582;10.096;2023-05-19T09:59:51;54243.50;;;-144.73;45.78
73551;BME280;61816;53.582;10.096;2023-05-19T10:02:18;54181.94;;;-144.73;45.83
73551;BME280;61816;53.582;10.096;2023-05-19T10:04:47;54222.97;;;-144.73;45.76
73551;BME280;61816;53.582;10.096;2023-05-19T10:07:13;54181.94;;;-144.73;45.01
73551;BME280;61816;53.582;10.096;2023-05-19T10:09:40;54181.94;;;-144.73;44.98
73551;BME280;61816;53.582;10.096;2023-05-19T10:12:07;54218.88;;;-144.73;43.72
73551;BME280;61816;53.582;10.096;2023-05-19T10:14:33;54227.09;;;-144.73;44.47
73551;BME280;61816;53.582;10.096;2023-05-19T10:16:58;54198.34;;;-144.73;44.73
73551;BME280;61816;53.582;10.096;2023-05-19T10:19:25;54198.34;;;-144.73;44.51
73551;BME280;61816;53.582;10.096;2023-05-19T10:21:51;54171.66;;;-144.73;43.46
73551;BME280;61816;53.582;10.096;2023-05-19T10:24:17;54194.25;;;-144.73;43.22
73551;BME280;61816;53.582;10.096;2023-05-19T10:26:45;54214.78;;;-144.73;44.37
73551;BME280;61816;53.582;10.096;2023-05-19T10:29:22;54181.94;;;-144.73;44.02
73551;BME280;61816;53.582;10.096;2023-05-19T10:31:50;54206.56;;;-144.73;44.28
73551;BME280;61816;53.582;10.096;2023-05-19T10:34:29;54198.34;;;-144.73;44.63
73551;BME280;61816;53.582;10.096;2023-05-19T10:39:50;54192.19;;;-144.73;43.56
73551;BME280;61816;53.582;10.096;2023-05-19T10:42:19;54202.44;;;-144.73;43.11
73551;BME280;61816;53.582;10.096;2023-05-19T10:44:59;54231.19;;;-144.73;42.70
73551;BME280;61816;53.582;10.096;2023-05-19T10:47:26;54183.97;;;-144.73;41.56
73551;BME280;61816;53.582;10.096;2023-05-19T10:49:55;54165.50;;;-144.73;40.57
73551;BME280;61816;53.582;10.096;2023-05-19T10:52:22;54149.09;;;-144.73;40.12
73551;BME280;61816;53.582;10.096;2023-05-19T10:54:53;54206.56;;;-144.73;41.49
73551;BME280;61816;53.582;10.096;2023-05-19T10:57:20;54179.88;;;-144.73;40.18
73551;BME280;61816;53.582;10.096;2023-05-19T10:59:50;54227.09;;;-144.73;37.83
73551;BME280;61816;53.582;10.096;2023-05-19T11:02:38;54192.19;;;-144.73;36.10
73551;BME280;61816;53.582;10.096;2023-05-19T11:07:42;54181.94;;;-144.73;38.01
73551;BME280;61816;53.582;10.096;2023-05-19T11:10:09;54198.34;;;-144.73;37.14
73551;BME280;61816;53.582;10.096;2023-05-19T11:12:39;54218.88;;;-144.73;38.48
73551;BME280;61816;53.582;10.096;2023-05-19T11:15:10;54214.78;;;-144.73;37.04
73551;BME280;61816;53.582;10.096;2023-05-19T11:17:35;54177.81;;;-144.73;36.84
73551;BME280;61816;53.582;10.096;2023-05-19T11:20:01;54167.56;;;-144.73;37.69
73551;BME280;61816;53.582;10.096;2023-05-19T11:22:27;54202.44;;;-144.73;37.98
73551;BME280;61816;53.582;10.096;2023-05-19T11:24:56;54165.50;;;-144.73;37.75
73551;BME280;61816;53.582;10.096;2023-05-19T11:27:24;54175.78;;;-144.73;38.07
73551;BME280;61816;53.582;10.096;2023-05-19T11:29:51;54149.09;;;-144.73;38.87
73551;BME280;61816;53.582;10.096;2023-05-19T11:32:19;54214.78;;;-144.73;37.11
73551;BME280;61816;53.582;10.096;2023-05-19T11:34:46;54190.13;;;-144.73;36.31
73551;BME280;61816;53.582;10.096;2023-05-19T11:37:12;54175.78;;;-144.73;36.02
73551;BME280;61816;53.582;10.096;2023-05-19T11:39:38;54157.31;;;-144.73;34.71
73551;BME280;61816;53.582;10.096;2023-05-19T11:42:04;54161.41;;;-144.73;34.95
73551;BME280;61816;53.582;10.096;2023-05-19T11:44:30;54161.41;;;-144.73;34.88
73551;BME280;61816;53.582;10.096;2023-05-19T11:46:57;54206.56;;;-144.73;34.25
73551;BME280;61816;53.582;10.096;2023-05-19T11:49:23;54181.94;;;-144.73;35.23
73551;BME280;61816;53.582;10.096;2023-05-19T11:51:48;54173.72;;;-144.73;35.63
73551;BME280;61816;53.582;10.096;2023-05-19T11:54:14;54169.63;;;-144.73;34.25
73551;BME280;61816;53.582;10.096;2023-05-19T11:56:42;54177.81;;;-144.73;33.61
73551;BME280;61816;53.582;10.096;2023-05-19T11:59:08;54194.25;;;-144.73;34.33
73551;BME280;61816;53.582;10.096;2023-05-19T12:01:34;54165.50;;;-144.73;34.10
73551;BME280;61816;53.582;10.096;2023-05-19T12:04:01;54149.09;;;-144.73;32.85
73551;BME280;61816;53.582;10.096;2023-05-19T12:06:27;54118.31;;;-144.73;32.64
73551;BME280;61816;53.582;10.096;2023-05-19T12:08:53;54149.09;;;-144.73;33.18
73551;BME280;61816;53.582;10.096;2023-05-19T12:11:19;54145.00;;;-144.73;32.89
73551;BME280;61816;53.582;10.096;2023-05-19T12:13:46;54153.19;;;-144.73;33.44
73551;BME280;61816;53.582;10.096;2023-05-19T12:16:11;54196.28;;;-144.73;33.06
73551;BME280;61816;53.582;10.096;2023-05-19T12:18:37;54177.81;;;-144.73;33.77
73551;BME280;61816;53.582;10.096;2023-05-19T12:21:03;54181.94;;;-144.73;33.27
73551;BME280;61816;53.582;10.096;2023-05-19T12:23:29;54190.13;;;-144.73;33.33
73551;BME280;61816;53.582;10.096;2023-05-19T12:25:57;54190.13;;;-144.73;34.17
73551;BME280;61816;53.582;10.096;2023-05-19T12:28:23;54214.78;;;-144.73;35.19
73551;BME280;61816;53.582;10.096;2023-05-19T12:30:49;54227.09;;;-144.73;37.42
73551;BME280;61816;53.582;10.096;2023-05-19T12:33:17;54181.94;;;-144.73;37.46
73551;BME280;61816;53.582;10.096;2023-05-19T12:35:44;54235.28;;;-144.73;37.98
73551;BME280;61816;53.582;10.096;2023-05-19T12:38:10;54198.34;;;-144.73;37.72
73551;BME280;61816;53.582;10.096;2023-05-19T12:40:36;54243.50;;;-144.73;37.79
73551;BME280;61816;53.582;10.096;2023-05-19T12:43:02;54190.13;;;-144.73;38.50
73551;BME280;61816;53.582;10.096;2023-05-19T12:45:33;54153.19;;;-144.73;37.57
73551;BME280;61816;53.582;10.096;2023-05-19T12:48:01;54179.88;;;-144.73;35.82